createdAt,value
2019-04-07T00:02:12.052Z,11.60
2019-04-07T00:04:41.722Z,11.60
2019-04-07T00:07:12.842Z,11.40
2019-04-07T00:09:42.478Z,11.50
2019-04-07T00:12:12.569Z,11.50
2019-04-07T00:14:42.478Z,11.60
2019-04-07T00:17:12.350Z,11.70
2019-04-07T00:19:41.977Z,11.80
2019-04-07T00:22:11.538Z,11.80
2019-04-07T00:24:40.958Z,11.80
2019-04-07T00:27:10.665Z,11.80
2019-04-07T00:29:40.208Z,11.70
2019-04-07T00:32:09.835Z,11.70
2019-04-07T00:34:39.804Z,11.60
2019-04-07T00:37:10.674Z,11.60
2019-04-07T00:39:40.408Z,11.60
2019-04-07T00:42:10.460Z,11.60
2019-04-07T00:44:39.938Z,11.70
2019-04-07T00:47:10.702Z,11.70
2019-04-07T00:49:59.823Z,11.50
2019-04-07T00:52:29.516Z,11.50
2019-04-07T00:54:59.480Z,11.40
2019-04-07T00:57:30.116Z,11.40
2019-04-07T01:00:00.455Z,11.40
2019-04-07T01:02:31.075Z,11.40
2019-04-07T01:05:00.555Z,11.40
2019-04-07T01:07:30.069Z,11.30
2019-04-07T01:09:59.603Z,11.30
2019-04-07T01:12:29.321Z,11.20
2019-04-07T01:14:59.545Z,11.30
2019-04-07T01:17:29.167Z,11.20
2019-04-07T01:19:58.708Z,11.20
2019-04-07T01:22:28.378Z,11.20
2019-04-07T01:24:58.499Z,11.10
2019-04-07T01:27:28.622Z,11.10
2019-04-07T01:29:58.543Z,11.10
2019-04-07T01:32:28.091Z,11.00
2019-04-07T01:34:58.111Z,11.00
2019-04-07T01:37:28.972Z,11.00
2019-04-07T01:39:59.235Z,11.10
2019-04-07T01:42:30.370Z,11.10
2019-04-07T01:45:18.017Z,11.00
2019-04-07T01:47:52.438Z,11.00
2019-04-07T01:50:23.934Z,11.10
2019-04-07T01:53:01.174Z,11.20
2019-04-07T01:55:42.148Z,11.10
2019-04-07T01:58:20.089Z,11.30
2019-04-07T02:00:57.643Z,11.30
2019-04-07T02:03:38.157Z,11.20
2019-04-07T02:06:09.544Z,11.30
2019-04-07T02:08:52.908Z,11.30
2019-04-07T02:11:29.972Z,11.40
2019-04-07T02:14:13.749Z,11.40
2019-04-07T02:16:46.526Z,11.30
2019-04-07T02:19:18.232Z,11.30
2019-04-07T02:22:06.947Z,11.30
2019-04-07T02:24:43.878Z,11.30
2019-04-07T02:27:15.282Z,11.50
2019-04-07T02:29:46.942Z,11.50
2019-04-07T02:32:27.860Z,11.50
2019-04-07T02:34:59.264Z,11.50
2019-04-07T02:37:39.077Z,11.50
2019-04-07T02:40:16.451Z,11.50
2019-04-07T02:43:01.608Z,11.50
2019-04-07T02:45:38.790Z,11.40
2019-04-07T02:48:22.137Z,11.40
2019-04-07T02:51:08.444Z,11.40
2019-04-07T02:53:42.316Z,11.40
2019-04-07T02:56:22.629Z,11.40
2019-04-07T02:58:59.581Z,11.50
2019-04-07T03:01:33.426Z,11.50
2019-04-07T03:04:04.817Z,11.40
2019-04-07T03:06:47.281Z,11.40
2019-04-07T03:09:27.223Z,11.40
2019-04-07T03:11:59.646Z,11.30
2019-04-07T03:14:33.713Z,11.30
2019-04-07T03:17:23.287Z,11.30
2019-04-07T03:19:57.610Z,11.20
2019-04-07T03:22:34.635Z,11.20
2019-04-07T03:25:09.849Z,11.30
2019-04-07T03:27:44.500Z,11.30
2019-04-07T03:30:27.848Z,11.30
2019-04-07T03:33:00.318Z,11.30
2019-04-07T03:35:38.361Z,11.40
2019-04-07T03:38:09.605Z,11.40
2019-04-07T03:40:44.153Z,11.50
2019-04-07T03:43:34.344Z,11.60
2019-04-07T03:46:12.121Z,11.70
2019-04-07T03:49:18.786Z,11.70
2019-04-07T03:52:07.096Z,11.70
2019-04-07T03:54:38.357Z,11.60
2019-04-07T03:57:19.581Z,11.60
2019-04-07T03:59:56.347Z,11.60
2019-04-07T04:02:39.277Z,11.60
2019-04-07T04:05:10.614Z,11.60
2019-04-07T04:07:56.956Z,11.60
2019-04-07T04:10:28.655Z,11.60
2019-04-07T04:13:05.551Z,11.50
2019-04-07T04:15:36.769Z,11.60
2019-04-07T04:18:06.319Z,11.50
2019-04-07T04:20:37.284Z,11.50
2019-04-07T04:23:07.789Z,11.60
2019-04-07T04:25:38.610Z,11.60
2019-04-07T04:28:08.461Z,11.60
2019-04-07T04:30:37.971Z,11.60
2019-04-07T04:33:08.778Z,11.60
2019-04-07T04:35:38.843Z,11.50
2019-04-07T04:38:08.747Z,11.40
2019-04-07T04:40:38.237Z,11.40
2019-04-07T04:43:07.722Z,11.30
2019-04-07T04:45:37.272Z,11.30
2019-04-07T04:48:06.837Z,11.30
2019-04-07T04:50:38.407Z,11.30
2019-04-07T04:53:09.246Z,11.40
2019-04-07T04:55:40.103Z,11.40
2019-04-07T04:58:12.660Z,11.30
2019-04-07T05:00:42.857Z,11.30
2019-04-07T05:03:12.770Z,11.40
2019-04-07T05:05:43.336Z,11.30
2019-04-07T05:08:12.961Z,11.30
2019-04-07T05:10:46.242Z,11.20
2019-04-07T05:13:15.979Z,11.20
2019-04-07T05:15:45.652Z,11.20
2019-04-07T05:18:15.057Z,11.30
2019-04-07T05:20:45.273Z,11.20
2019-04-07T05:23:28.472Z,11.20
2019-04-07T05:25:58.264Z,11.30
2019-04-07T05:28:27.815Z,11.30
2019-04-07T05:30:57.961Z,11.30
2019-04-07T05:33:27.819Z,11.40
2019-04-07T05:35:57.526Z,11.40
2019-04-07T05:38:28.022Z,11.40
2019-04-07T05:40:57.573Z,11.40
2019-04-07T05:43:27.387Z,11.50
2019-04-07T05:45:57.599Z,11.50
2019-04-07T05:48:27.032Z,11.50
2019-04-07T05:50:59.965Z,11.60
2019-04-07T05:53:27.806Z,11.60
2019-04-07T05:55:57.980Z,11.70
2019-04-07T05:58:29.041Z,11.70
2019-04-07T06:00:58.817Z,11.70
2019-04-07T06:03:28.308Z,11.80
2019-04-07T06:05:58.024Z,11.90
2019-04-07T06:08:35.546Z,11.90
2019-04-07T06:11:02.253Z,11.90
2019-04-07T06:13:31.314Z,11.90
2019-04-07T06:16:01.127Z,11.90
2019-04-07T06:18:33.858Z,12.00
2019-04-07T06:21:01.591Z,12.10
2019-04-07T06:23:31.023Z,12.20
2019-04-07T06:26:00.769Z,12.20
2019-04-07T06:28:30.370Z,12.20
2019-04-07T06:31:01.360Z,12.30
2019-04-07T06:33:31.955Z,12.30
2019-04-07T06:36:01.713Z,12.40
2019-04-07T06:38:34.966Z,12.50
2019-04-07T06:41:03.139Z,12.60
2019-04-07T06:43:35.149Z,12.70
2019-04-07T06:46:27.061Z,12.70
2019-04-07T06:49:01.576Z,12.80
2019-04-07T06:51:42.400Z,12.90
2019-04-07T06:54:20.495Z,13.10
2019-04-07T06:57:05.984Z,13.20
2019-04-07T06:59:37.223Z,13.30
2019-04-07T07:02:08.651Z,13.40
2019-04-07T07:04:43.597Z,13.50
2019-04-07T07:07:16.747Z,13.50
2019-04-07T07:09:59.846Z,13.50
2019-04-07T07:12:35.020Z,13.60
2019-04-07T07:15:12.154Z,13.80
2019-04-07T07:17:59.025Z,14.00
2019-04-07T07:20:47.720Z,14.10
2019-04-07T07:23:22.026Z,14.30
2019-04-07T07:25:51.975Z,14.40
2019-04-07T07:28:21.613Z,14.40
2019-04-07T07:30:52.716Z,14.60
2019-04-07T07:33:22.368Z,14.60
2019-04-07T07:35:52.642Z,14.60
2019-04-07T07:38:23.193Z,14.60
2019-04-07T07:40:52.908Z,14.60
2019-04-07T07:43:22.723Z,14.60
2019-04-07T07:45:52.664Z,14.70
2019-04-07T07:48:26.231Z,14.60
2019-04-07T07:50:53.725Z,14.70
2019-04-07T07:53:26.941Z,14.70
2019-04-07T07:55:54.449Z,14.70
2019-04-07T07:58:27.945Z,14.70
2019-04-07T08:00:58.280Z,14.70
2019-04-07T08:03:27.305Z,14.80
2019-04-07T08:05:56.847Z,14.90
2019-04-07T08:08:26.425Z,14.90
2019-04-07T08:10:58.572Z,15.00
2019-04-07T08:13:27.359Z,15.00
2019-04-07T08:15:59.157Z,15.10
2019-04-07T08:18:29.652Z,15.10
2019-04-07T08:20:59.321Z,15.10
2019-04-07T08:23:29.588Z,15.10
2019-04-07T08:26:00.353Z,15.10
2019-04-07T08:28:33.671Z,15.10
2019-04-07T08:31:17.734Z,15.10
2019-04-07T08:33:45.091Z,15.10
2019-04-07T08:36:15.029Z,15.10
2019-04-07T08:38:44.634Z,15.10
2019-04-07T08:41:15.894Z,15.20
2019-04-07T08:43:46.255Z,15.20
2019-04-07T08:46:16.608Z,15.30
2019-04-07T08:48:49.736Z,15.30
2019-04-07T08:51:18.980Z,15.30
2019-04-07T08:53:48.638Z,15.40
2019-04-07T08:56:18.063Z,15.40
2019-04-07T08:58:47.825Z,15.50
2019-04-07T09:01:20.197Z,15.50
2019-04-07T09:03:48.752Z,15.60
2019-04-07T09:06:18.524Z,15.60
2019-04-07T09:08:48.152Z,15.70
2019-04-07T09:11:21.650Z,15.80
2019-04-07T09:13:52.610Z,15.80
2019-04-07T09:16:30.226Z,15.90
2019-04-07T09:19:06.796Z,15.90
2019-04-07T09:21:42.427Z,15.90
2019-04-07T09:24:30.514Z,16.00
2019-04-07T09:27:01.125Z,16.00
2019-04-07T09:29:48.823Z,16.00
2019-04-07T09:32:22.675Z,16.00
2019-04-07T09:35:12.313Z,16.10
2019-04-07T09:37:47.025Z,16.10
2019-04-07T09:40:34.550Z,16.20
2019-04-07T09:43:22.484Z,16.20
2019-04-07T09:46:03.472Z,16.30
2019-04-07T09:48:35.371Z,16.30
2019-04-07T09:51:07.290Z,16.30
2019-04-07T09:53:56.782Z,16.20
2019-04-07T09:56:40.819Z,16.20
2019-04-07T09:59:14.992Z,16.10
2019-04-07T10:02:02.562Z,16.10
2019-04-07T10:04:37.912Z,16.10
2019-04-07T10:07:15.359Z,16.20
2019-04-07T10:10:07.406Z,16.30
2019-04-07T10:12:36.285Z,16.30
2019-04-07T10:15:26.566Z,16.40
2019-04-07T10:18:06.229Z,16.50
2019-04-07T10:20:37.284Z,16.60
2019-04-07T10:23:09.395Z,16.70
2019-04-07T10:25:42.306Z,16.80
2019-04-07T10:28:28.848Z,16.90
2019-04-07T10:31:18.454Z,17.00
2019-04-07T10:33:57.215Z,17.10
2019-04-07T10:36:37.425Z,17.10
2019-04-07T10:39:09.574Z,17.10
2019-04-07T10:41:44.120Z,17.10
2019-04-07T10:44:24.965Z,17.20
2019-04-07T10:46:59.378Z,17.20
2019-04-07T10:49:43.184Z,17.30
2019-04-07T10:52:14.824Z,17.30
2019-04-07T10:55:04.130Z,17.30
2019-04-07T10:57:38.934Z,17.10
2019-04-07T11:00:24.045Z,17.10
2019-04-07T11:03:10.997Z,17.00
2019-04-07T11:05:58.195Z,17.10
2019-04-07T11:08:38.222Z,17.20
2019-04-07T11:11:22.258Z,17.30
2019-04-07T11:14:13.408Z,17.30
2019-04-07T11:16:50.662Z,17.40
2019-04-07T11:19:28.542Z,17.40
2019-04-07T11:22:12.332Z,17.40
2019-04-07T11:24:55.794Z,17.30
2019-04-07T11:27:29.862Z,17.30
2019-04-07T11:30:00.972Z,17.40
2019-04-07T11:32:34.872Z,17.50
2019-04-07T11:38:07.016Z,18.00
2019-04-07T11:40:45.799Z,18.20
2019-04-07T11:43:20.760Z,18.30
2019-04-07T11:46:02.194Z,18.30
2019-04-07T11:48:31.753Z,18.40
2019-04-07T11:51:03.298Z,18.50
2019-04-07T11:53:50.203Z,18.60
2019-04-07T11:56:37.123Z,18.70
2019-04-07T11:59:24.743Z,18.70
2019-04-07T12:01:59.715Z,18.70
2019-04-07T12:04:47.904Z,18.70
2019-04-07T12:07:23.082Z,18.80
2019-04-07T12:09:59.871Z,18.80
2019-04-07T12:12:34.294Z,18.90
2019-04-07T12:15:26.860Z,19.00
2019-04-07T12:18:11.753Z,19.10
2019-04-07T12:20:45.118Z,19.10
2019-04-07T12:23:25.193Z,19.00
2019-04-07T12:26:04.123Z,19.00
2019-04-07T12:28:50.415Z,19.10
2019-04-07T12:31:25.979Z,19.10
2019-04-07T12:34:00.211Z,19.20
2019-04-07T12:36:34.441Z,19.30
2019-04-07T12:39:22.630Z,19.30
2019-04-07T12:41:55.933Z,19.30
2019-04-07T12:44:26.543Z,19.30
2019-04-07T12:47:00.338Z,19.40
2019-04-07T12:49:42.207Z,19.40
2019-04-07T12:52:28.061Z,19.50
2019-04-07T12:54:58.058Z,19.60
2019-04-07T12:57:29.199Z,19.80
2019-04-07T13:00:07.082Z,19.90
2019-04-07T13:02:47.595Z,20.00
2019-04-07T13:05:21.704Z,20.30
2019-04-07T13:08:09.174Z,20.80
2019-04-07T13:10:40.509Z,21.30
2019-04-07T13:13:12.415Z,21.60
2019-04-07T13:15:49.791Z,21.50
2019-04-07T13:18:38.972Z,21.50
2019-04-07T13:21:10.453Z,21.50
2019-04-07T13:23:57.196Z,21.30
2019-04-07T13:26:32.391Z,21.20
2019-04-07T13:29:20.539Z,21.00
2019-04-07T13:31:58.174Z,20.80
2019-04-07T13:34:35.724Z,21.00
2019-04-07T13:37:21.894Z,21.30
2019-04-07T13:39:52.386Z,21.20
2019-04-07T13:42:25.408Z,21.20
2019-04-07T13:45:05.156Z,21.20
2019-04-07T13:47:48.646Z,21.30
2019-04-07T13:50:31.090Z,21.40
2019-04-07T13:53:19.315Z,22.40
2019-04-07T13:55:57.150Z,23.60
2019-04-07T13:58:37.301Z,24.70
2019-04-07T14:01:21.332Z,24.90
2019-04-07T14:04:31.667Z,25.00
2019-04-07T14:07:02.484Z,25.40
2019-04-07T14:09:40.688Z,26.60
2019-04-07T14:12:30.992Z,27.40
2019-04-07T14:15:15.920Z,27.40
2019-04-07T14:17:48.076Z,27.50
2019-04-07T14:20:25.721Z,27.80
2019-04-07T14:23:08.841Z,28.20
2019-04-07T14:25:45.365Z,28.40
2019-04-07T14:28:15.479Z,28.20
2019-04-07T14:31:03.172Z,27.80
2019-04-07T14:33:46.942Z,27.60
2019-04-07T14:36:21.814Z,27.70
2019-04-07T14:39:09.647Z,26.60
2019-04-07T14:42:02.582Z,25.30
2019-04-07T14:44:33.656Z,24.20
2019-04-07T14:47:08.882Z,23.70
2019-04-07T14:49:46.183Z,23.20
2019-04-07T14:52:15.571Z,22.90
2019-04-07T14:55:00.013Z,22.60
2019-04-07T14:57:35.119Z,22.30
2019-04-07T15:00:10.964Z,21.90
2019-04-07T15:02:41.167Z,21.60
2019-04-07T15:05:25.403Z,21.30
2019-04-07T15:07:59.479Z,21.10
2019-04-07T15:10:36.186Z,21.00
2019-04-07T15:13:07.548Z,20.80
2019-04-07T15:15:37.155Z,20.60
2019-04-07T15:18:07.216Z,20.50
2019-04-07T15:20:37.849Z,20.40
2019-04-07T15:23:07.567Z,20.40
2019-04-07T15:25:40.644Z,20.70
2019-04-07T15:28:08.963Z,20.70
2019-04-07T15:30:38.527Z,20.50
2019-04-07T15:33:11.606Z,20.40
2019-04-07T15:35:45.086Z,20.70
2019-04-07T15:38:11.894Z,20.60
2019-04-07T15:40:41.334Z,20.40
2019-04-07T15:43:11.696Z,20.20
2019-04-07T15:45:44.393Z,20.00
2019-04-07T15:48:13.655Z,19.90
2019-04-07T15:50:43.220Z,19.70
2019-04-07T15:53:14.393Z,19.60
2019-04-07T15:55:52.997Z,19.60
2019-04-07T15:58:15.487Z,19.50
2019-04-07T16:00:45.358Z,19.40
2019-04-07T16:03:16.881Z,19.20
2019-04-07T16:05:46.659Z,19.00
2019-04-07T16:08:16.307Z,18.90
2019-04-07T16:10:46.577Z,18.80
2019-04-07T16:13:16.340Z,18.70
2019-04-07T16:15:48.358Z,18.60
2019-04-07T16:18:17.190Z,18.60
2019-04-07T16:20:46.969Z,18.60
2019-04-07T16:23:18.329Z,18.70
2019-04-07T16:25:47.642Z,18.80
2019-04-07T16:28:17.238Z,18.90
2019-04-07T16:30:49.573Z,19.00
2019-04-07T16:33:19.443Z,19.00
2019-04-07T16:35:54.025Z,18.80
2019-04-07T16:38:20.696Z,18.70
2019-04-07T16:40:50.282Z,18.50
2019-04-07T16:43:20.188Z,18.50
2019-04-07T16:45:50.657Z,18.30
2019-04-07T16:48:20.884Z,18.20
2019-04-07T16:50:54.740Z,18.00
2019-04-07T16:53:21.892Z,17.90
2019-04-07T16:55:54.903Z,17.80
2019-04-07T16:58:22.782Z,17.60
2019-04-07T17:00:52.287Z,17.40
2019-04-07T17:03:21.782Z,17.30
2019-04-07T17:05:55.748Z,17.00
2019-04-07T17:08:24.687Z,16.40
2019-04-07T17:10:54.182Z,16.00
2019-04-07T17:13:34.829Z,15.70
2019-04-07T17:15:55.288Z,15.40
2019-04-07T17:18:36.904Z,15.50
2019-04-07T17:21:16.062Z,15.20
2019-04-07T17:23:46.165Z,15.30
2019-04-07T17:26:15.728Z,15.00
2019-04-07T17:28:47.419Z,14.80
2019-04-07T17:31:17.509Z,14.80
2019-04-07T17:33:47.211Z,15.00
2019-04-07T17:36:20.123Z,14.80
2019-04-07T17:39:07.117Z,14.80
2019-04-07T17:41:37.851Z,14.80
2019-04-07T17:44:16.045Z,14.70
2019-04-07T17:47:00.098Z,14.70
2019-04-07T17:49:35.566Z,14.60
2019-04-07T17:52:22.237Z,14.60
2019-04-07T17:54:56.128Z,14.40
2019-04-07T17:57:42.796Z,14.40
2019-04-07T18:00:18.034Z,14.30
2019-04-07T18:03:07.484Z,14.40
2019-04-07T18:05:50.833Z,14.50
2019-04-07T18:08:25.191Z,14.50
2019-04-07T18:11:02.371Z,14.50
2019-04-07T18:13:49.928Z,14.60
2019-04-07T18:16:25.573Z,14.50
2019-04-07T18:19:13.106Z,14.40
2019-04-07T18:21:52.777Z,14.50
2019-04-07T18:24:23.465Z,14.40
2019-04-07T18:27:12.441Z,14.30
2019-04-07T18:29:43.407Z,14.20
2019-04-07T18:32:26.462Z,14.10
2019-04-07T18:34:58.763Z,14.00
2019-04-07T18:37:36.435Z,13.90
2019-04-07T18:40:11.974Z,13.80
2019-04-07T18:42:46.730Z,13.80
2019-04-07T18:45:35.034Z,13.70
2019-04-07T18:48:19.184Z,13.60
2019-04-07T18:51:12.593Z,13.60
2019-04-07T18:53:44.116Z,13.50
2019-04-07T18:56:25.072Z,13.50
2019-04-07T18:59:11.747Z,13.40
2019-04-07T19:01:43.540Z,13.40
2019-04-07T19:04:17.004Z,13.40
2019-04-07T19:06:49.509Z,13.30
2019-04-07T19:09:27.142Z,13.20
2019-04-07T19:12:18.516Z,13.20
2019-04-07T19:14:55.971Z,13.20
2019-04-07T19:17:38.529Z,13.10
2019-04-07T19:20:28.753Z,13.10
2019-04-07T19:23:09.837Z,13.10
2019-04-07T19:25:47.873Z,13.10
2019-04-07T19:28:22.931Z,13.00
2019-04-07T19:31:06.915Z,12.90
2019-04-07T19:33:44.108Z,13.00
2019-04-07T19:36:21.513Z,13.00
2019-04-07T19:39:09.103Z,12.80
2019-04-07T19:41:49.426Z,12.80
2019-04-07T19:44:32.721Z,12.70
2019-04-07T19:47:08.974Z,12.70
2019-04-07T19:49:55.715Z,12.70
2019-04-07T19:52:34.099Z,12.70
2019-04-07T19:55:22.631Z,12.70
2019-04-07T19:58:02.772Z,12.70
2019-04-07T20:00:55.310Z,12.60
2019-04-07T20:03:42.462Z,12.70
2019-04-07T20:06:30.634Z,12.60
2019-04-07T20:09:19.281Z,12.60
2019-04-07T20:11:51.461Z,12.50
2019-04-07T20:14:26.291Z,12.60
2019-04-07T20:17:17.046Z,12.60
2019-04-07T20:19:54.063Z,12.50
2019-04-07T20:22:41.417Z,12.50
2019-04-07T20:25:15.938Z,12.50
2019-04-07T20:28:02.284Z,12.40
2019-04-07T20:30:39.424Z,12.30
2019-04-07T20:33:29.845Z,12.40
2019-04-07T20:36:07.093Z,12.30
2019-04-07T20:38:58.424Z,12.30
2019-04-07T20:41:38.466Z,12.20
2019-04-07T20:44:33.671Z,12.30
2019-04-07T20:47:17.545Z,12.20
2019-04-07T20:49:58.792Z,12.20
2019-04-07T20:52:46.076Z,12.10
2019-04-07T20:55:23.284Z,12.10
2019-04-07T20:58:17.795Z,12.00
2019-04-07T21:01:00.134Z,12.00
2019-04-07T21:03:29.850Z,12.00
2019-04-07T21:06:17.492Z,12.00
2019-04-07T21:08:48.568Z,12.10
2019-04-07T21:11:21.573Z,12.00
2019-04-07T21:13:52.963Z,11.90
2019-04-07T21:16:40.031Z,12.00
2019-04-07T21:19:27.688Z,11.90
2019-04-07T21:22:05.451Z,11.90
2019-04-07T21:24:37.662Z,11.90
2019-04-07T21:27:14.404Z,11.90
2019-04-07T21:29:48.455Z,11.80
2019-04-07T21:32:22.766Z,11.80
2019-04-07T21:35:01.799Z,11.70
2019-04-07T21:37:49.416Z,11.70
2019-04-07T21:40:24.377Z,11.70
2019-04-07T21:42:56.229Z,11.70
2019-04-07T21:45:38.954Z,11.60
2019-04-07T21:48:22.849Z,11.60
2019-04-07T21:50:54.804Z,11.60
2019-04-07T21:53:31.670Z,11.60
2019-04-07T21:56:13.309Z,11.60
2019-04-07T21:58:43.987Z,11.60
2019-04-07T22:01:18.689Z,11.60
2019-04-07T22:03:59.027Z,11.60
2019-04-07T22:06:37.155Z,11.60
2019-04-07T22:09:15.895Z,11.70
2019-04-07T22:11:44.943Z,11.60
2019-04-07T22:14:15.155Z,11.50
2019-04-07T22:16:44.929Z,11.50
2019-04-07T22:19:16.236Z,11.50
2019-04-07T22:21:45.583Z,11.50
2019-04-07T22:24:15.260Z,11.50
2019-04-07T22:26:49.196Z,11.50
2019-04-07T22:29:16.196Z,11.40
2019-04-07T22:31:47.919Z,11.40
2019-04-07T22:34:18.537Z,11.40
2019-04-07T22:36:48.299Z,11.50
2019-04-07T22:39:18.455Z,11.40
2019-04-07T22:41:48.418Z,11.40
2019-04-07T22:44:19.877Z,11.40
2019-04-07T22:46:51.255Z,11.40
2019-04-07T22:49:20.207Z,11.50
2019-04-07T22:51:50.766Z,11.60
2019-04-07T22:54:20.826Z,11.50
2019-04-07T22:56:50.217Z,11.40
2019-04-07T22:59:19.766Z,11.30
2019-04-07T23:01:49.401Z,11.30
2019-04-07T23:04:19.095Z,11.20
2019-04-07T23:06:48.549Z,11.20
2019-04-07T23:09:19.016Z,11.30
2019-04-07T23:11:48.626Z,11.20
2019-04-07T23:14:18.177Z,11.20
2019-04-07T23:16:48.523Z,11.20
2019-04-07T23:19:18.548Z,11.20
2019-04-07T23:21:49.105Z,11.20
2019-04-07T23:24:19.215Z,11.10
2019-04-07T23:26:50.924Z,11.10
2019-04-07T23:29:20.600Z,11.00
2019-04-07T23:31:51.357Z,11.00
2019-04-07T23:34:21.130Z,11.00
2019-04-07T23:36:50.664Z,11.00
2019-04-07T23:39:20.185Z,11.00
2019-04-07T23:41:49.607Z,11.00
2019-04-07T23:44:19.132Z,11.10
2019-04-07T23:46:48.934Z,11.00
2019-04-07T23:49:19.080Z,11.00
2019-04-07T23:51:48.512Z,11.00
2019-04-07T23:54:18.362Z,10.90
2019-04-07T23:56:47.869Z,10.80
2019-04-07T23:59:17.324Z,10.80
